Time;durP1;ratioP1;P1;durP2;ratioP2;P2;SDS_P1;SDS_P2;PMS_P1;PMS_P2;Temp;Humidity;BMP_temperature;BMP_pressure;BME280_temperature;BME280_humidity;BME280_pressure;Samples;Min_cycle;Max_cycle;Signal;HPM_P1;HPM_P2
2023/03/28 00:01:33;;;;;;;9.80;2.30;;;;;;;;;;5038905;28;20061;-65
2023/03/28 00:04:03;;;;;;;7.70;2.30;;;;;;;;;;5057017;28;20044;-64
2023/03/28 00:06:33;;;;;;;4.25;2.15;;;;;;;;;;5073960;28;20055;-65
2023/03/28 00:09:04;;;;;;;4.40;1.77;;;;;;;;;;5074192;28;20051;-65
2023/03/28 00:11:34;;;;;;;4.53;2.03;;;;;;;;;;5074092;28;20051;-65
2023/03/28 00:14:07;;;;;;;10.02;2.40;;;;;;;;;;5074236;28;20052;-65
2023/03/28 00:16:39;;;;;;;5.25;2.28;;;;;;;;;;5021812;28;20057;-65
2023/03/28 00:19:10;;;;;;;;;;;;;;;;;;5074308;28;20051;-65
2023/03/28 00:21:45;;;;;;;7.15;2.00;;;;;;;;;;5034507;28;19921;-65
2023/03/28 00:24:20;;;;;;;5.82;2.55;;;;;;;;;;5073610;28;20048;-65
2023/03/28 00:26:53;;;;;;;4.95;2.35;;;;;;;;;;5022253;28;20068;-65
2023/03/28 00:29:24;;;;;;;8.68;1.90;;;;;;;;;;5001857;28;20041;-65
2023/03/28 00:31:55;;;;;;;8.65;2.40;;;;;;;;;;5051890;28;20057;-64
2023/03/28 00:34:25;;;;;;;4.35;2.30;;;;;;;;;;5034682;28;20060;-64
2023/03/28 00:36:56;;;;;;;5.97;2.22;;;;;;;;;;5011592;28;20061;-65
2023/03/28 00:39:26;;;;;;;7.00;2.40;;;;;;;;;;5011611;28;20167;-64
2023/03/28 00:42:00;;;;;;;5.22;2.90;;;;;;;;;;4964212;28;20049;-65
2023/03/28 00:44:52;;;;;;;4.85;2.45;;;;;;;;;;4972725;28;20063;-64
2023/03/28 00:47:25;;;;;;;6.47;2.28;;;;;;;;;;4972598;28;20062;-64
2023/03/28 00:50:00;;;;;;;9.15;3.08;;;;;;;;;;4940493;28;20058;-64
2023/03/28 00:52:38;;;;;;;5.82;3.03;;;;;;;;;;4933846;29;20530;-64
2023/03/28 00:55:15;;;;;;;6.70;3.17;;;;;;;;;;4914887;29;20059;-64
2023/03/28 00:57:47;;;;;;;6.60;2.70;;;;;;;;;;4861440;29;20072;-64
2023/03/28 01:00:17;;;;;;;5.88;2.92;;;;;;;;;;4825065;29;20054;-64
2023/03/28 01:02:51;;;;;;;12.30;3.15;;;;;;;;;;4840010;29;20074;-64
2023/03/28 01:05:26;;;;;;;5.03;2.78;;;;;;;;;;4840404;29;20565;-64
2023/03/28 01:08:19;;;;;;;7.93;2.90;;;;;;;;;;4823434;29;20059;-64
2023/03/28 01:10:49;;;;;;;8.52;3.28;;;;;;;;;;4821511;29;20105;-64
2023/03/28 01:13:24;;;;;;;5.38;3.00;;;;;;;;;;4847345;29;20602;-65
2023/03/28 01:15:55;;;;;;;7.50;3.10;;;;;;;;;;4821166;29;20100;-65
2023/03/28 01:18:25;;;;;;;6.72;2.85;;;;;;;;;;4821352;29;20054;-66
2023/03/28 01:21:30;;;;;;;12.30;3.88;;;;;;;;;;4857840;29;20053;-65
2023/03/28 01:24:03;;;;;;;7.88;2.83;;;;;;;;;;4829394;29;20045;-65
2023/03/28 01:26:56;;;;;;;8.43;2.90;;;;;;;;;;4863429;29;20541;-64
2023/03/28 01:29:40;;;;;;;7.32;3.58;;;;;;;;;;4890746;29;20052;-64
2023/03/28 01:32:39;;;;;;;9.57;3.03;;;;;;;;;;4942453;29;20051;-64
2023/03/28 01:35:32;;;;;;;6.65;3.33;;;;;;;;;;4905770;29;20095;-64
2023/03/28 01:38:20;;;;;;;7.03;3.20;;;;;;;;;;4927610;28;20087;-64
2023/03/28 01:40:56;;;;;;;5.30;2.50;;;;;;;;;;4947664;28;20410;-65
2023/03/28 01:44:03;;;;;;;7.32;3.50;;;;;;;;;;4959898;28;20051;-64
2023/03/28 01:46:39;;;;;;;6.78;2.72;;;;;;;;;;4915719;28;20066;-63
2023/03/28 01:49:38;;;;;;;6.53;3.38;;;;;;;;;;4902150;29;20130;-64
2023/03/28 01:52:20;;;;;;;6.68;2.45;;;;;;;;;;4875904;29;20053;-64
2023/03/28 01:54:53;;;;;;;7.50;4.18;;;;;;;;;;4854392;29;20059;-65
2023/03/28 01:57:33;;;;;;;6.70;3.00;;;;;;;;;;4870657;29;20054;-64
2023/03/28 02:00:38;;;;;;;7.13;3.65;;;;;;;;;;4849263;29;20050;-66
2023/03/28 02:03:28;;;;;;;9.63;3.67;;;;;;;;;;4908808;29;20063;-65
2023/03/28 02:06:07;;;;;;;7.63;2.75;;;;;;;;;;4913014;29;20049;-63
2023/03/28 02:08:40;;;;;;;6.47;2.90;;;;;;;;;;4912988;29;20059;-65
2023/03/28 02:11:46;;;;;;;6.45;2.78;;;;;;;;;;4921202;29;20056;-64
2023/03/28 02:14:36;;;;;;;8.82;3.40;;;;;;;;;;4912380;29;20040;-64
2023/03/28 02:17:27;;;;;;;9.00;2.58;;;;;;;;;;4894107;29;20508;-64
2023/03/28 02:20:31;;;;;;;9.32;3.30;;;;;;;;;;4894291;29;20048;-65
2023/03/28 02:23:55;;;;;;;4.82;2.55;;;;;;;;;;4894317;29;20053;-64
2023/03/28 02:26:53;;;;;;;7.97;3.38;;;;;;;;;;4856247;29;20053;-65
2023/03/28 02:29:37;;;;;;;9.50;3.77;;;;;;;;;;5087562;27;20399;-64
2023/03/28 02:32:16;;;;;;;6.25;3.20;;;;;;;;;;5085883;28;20466;-64
2023/03/28 02:34:48;;;;;;;15.88;3.28;;;;;;;;;;5053101;28;20048;-64
2023/03/28 02:37:48;;;;;;;6.80;2.97;;;;;;;;;;5035951;28;20052;-64
2023/03/28 02:40:41;;;;;;;7.40;3.00;;;;;;;;;;5069017;28;20048;-64
2023/03/28 02:43:41;;;;;;;8.23;3.05;;;;;;;;;;5045654;28;20106;-64
2023/03/28 02:46:34;;;;;;;6.75;3.20;;;;;;;;;;5045743;28;20116;-64
2023/03/28 02:49:30;;;;;;;10.98;3.05;;;;;;;;;;5025639;28;20164;-64
2023/03/28 02:52:35;;;;;;;8.85;3.40;;;;;;;;;;4986272;28;20061;-65
2023/03/28 02:55:22;;;;;;;7.70;3.40;;;;;;;;;;4986373;28;20062;-65
2023/03/28 02:58:39;;;;;;;9.35;3.75;;;;;;;;;;4947467;29;20047;-64
2023/03/28 03:01:13;;;;;;;10.60;3.17;;;;;;;;;;4947657;29;20594;-63
2023/03/28 03:03:43;;;;;;;9.70;3.03;;;;;;;;;;4943579;29;20048;-64
2023/03/28 03:06:13;;;;;;;10.18;3.08;;;;;;;;;;4912145;29;20524;-64
2023/03/28 03:08:43;;;;;;;11.50;3.97;;;;;;;;;;4927988;29;20067;-64
2023/03/28 03:11:13;;;;;;;10.57;3.53;;;;;;;;;;4944318;29;20067;-63
2023/03/28 03:13:43;;;;;;;8.20;3.40;;;;;;;;;;4932684;29;20410;-64
2023/03/28 03:16:13;;;;;;;8.55;3.92;;;;;;;;;;4966363;28;20066;-64
2023/03/28 03:18:43;;;;;;;7.13;3.35;;;;;;;;;;4966617;28;20055;-64
2023/03/28 03:21:17;;;;;;;8.98;3.55;;;;;;;;;;4966269;28;20058;-64
2023/03/28 03:23:46;;;;;;;11.50;3.60;;;;;;;;;;4965944;28;20083;-64
2023/03/28 03:26:16;;;;;;;9.88;3.65;;;;;;;;;;4972495;28;20062;-65
2023/03/28 03:29:12;;;;;;;7.80;3.22;;;;;;;;;;4975661;28;20093;-65
2023/03/28 03:31:42;;;;;;;10.48;3.17;;;;;;;;;;4985871;28;20058;-64
2023/03/28 03:34:40;;;;;;;9.48;3.45;;;;;;;;;;4966115;28;20055;-65
2023/03/28 03:37:10;;;;;;;6.80;3.60;;;;;;;;;;4926284;29;20056;-65
2023/03/28 03:39:39;;;;;;;10.90;3.45;;;;;;;;;;4940558;29;20059;-65
2023/03/28 03:42:10;;;;;;;7.50;3.85;;;;;;;;;;4969012;28;20065;-68
2023/03/28 03:44:40;;;;;;;11.43;3.28;;;;;;;;;;4933692;29;20052;-65
2023/03/28 03:47:12;;;;;;;6.90;3.30;;;;;;;;;;4933849;29;20066;-65
2023/03/28 03:49:42;;;;;;;8.50;3.10;;;;;;;;;;4952741;29;20415;-65
2023/03/28 03:52:13;;;;;;;9.32;3.00;;;;;;;;;;4952920;29;20062;-64
2023/03/28 03:54:44;;;;;;;9.23;2.60;;;;;;;;;;4936270;29;20408;-65
2023/03/28 03:57:14;;;;;;;9.80;3.95;;;;;;;;;;4952702;29;20063;-65
2023/03/28 03:59:45;;;;;;;11.45;3.10;;;;;;;;;;4936400;29;20055;-64
2023/03/28 04:02:17;;;;;;;14.70;3.75;;;;;;;;;;4901626;29;20052;-65
2023/03/28 04:04:59;;;;;;;6.82;3.15;;;;;;;;;;4914520;29;20527;-65
2023/03/28 04:07:44;;;;;;;11.25;3.33;;;;;;;;;;4914117;29;20389;-65
2023/03/28 04:10:28;;;;;;;6.68;3.17;;;;;;;;;;4900655;29;20063;-64
2023/03/28 04:12:58;;;;;;;8.93;3.42;;;;;;;;;;4914037;29;20500;-64
2023/03/28 04:15:28;;;;;;;9.57;3.45;;;;;;;;;;4879764;29;20060;-65
2023/03/28 04:18:28;;;;;;;7.25;3.00;;;;;;;;;;4858940;29;20061;-64
2023/03/28 04:21:00;;;;;;;;;;;;;;;;;;4892070;29;20056;-64
2023/03/28 04:23:56;;;;;;;;;;;;;;;;;;4860862;29;19933;-65
2023/03/28 04:26:34;;;;;;;6.10;2.85;;;;;;;;;;4876244;29;19933;-64
2023/03/28 04:29:08;;;;;;;10.50;3.58;;;;;;;;;;4857397;29;20468;-64
2023/03/28 04:31:48;;;;;;;7.00;2.90;;;;;;;;;;4869480;29;20073;-65
2023/03/28 04:34:38;;;;;;;9.88;3.33;;;;;;;;;;4832601;29;20066;-65
2023/03/28 04:37:12;;;;;;;7.60;2.85;;;;;;;;;;4853869;29;20140;-64
2023/03/28 04:39:52;;;;;;;6.60;2.78;;;;;;;;;;4839215;29;20201;-64
2023/03/28 04:42:41;;;;;;;5.80;2.90;;;;;;;;;;4810486;29;20054;-65
2023/03/28 04:45:13;;;;;;;10.82;3.10;;;;;;;;;;4795107;29;20053;-64
2023/03/28 04:47:48;;;;;;;8.40;2.97;;;;;;;;;;4857444;29;20060;-65
2023/03/28 04:50:22;;;;;;;8.65;2.58;;;;;;;;;;4868573;29;20050;-64
2023/03/28 04:52:52;;;;;;;17.27;3.88;;;;;;;;;;4856963;29;20053;-65
2023/03/28 04:55:24;;;;;;;7.65;2.60;;;;;;;;;;4867865;29;20054;-65
2023/03/28 04:57:56;;;;;;;11.25;2.72;;;;;;;;;;4857466;29;20053;-64
2023/03/28 05:00:26;;;;;;;7.93;2.92;;;;;;;;;;4854277;29;20048;-64
2023/03/28 05:03:06;;;;;;;6.03;2.53;;;;;;;;;;4895209;29;20064;-65
2023/03/28 05:05:48;;;;;;;5.38;2.47;;;;;;;;;;4848308;29;20128;-64
2023/03/28 05:08:21;;;;;;;5.80;2.58;;;;;;;;;;4884422;29;20052;-65
2023/03/28 05:10:51;;;;;;;7.82;2.53;;;;;;;;;;4860328;29;20060;-65
2023/03/28 05:13:24;;;;;;;7.97;2.92;;;;;;;;;;4875502;29;20053;-64
2023/03/28 05:16:08;;;;;;;6.35;2.53;;;;;;;;;;4894282;29;20048;-64
2023/03/28 05:18:59;;;;;;;6.80;2.30;;;;;;;;;;4894235;29;20079;-65
2023/03/28 05:21:49;;;;;;;8.95;2.63;;;;;;;;;;4881007;29;20092;-65
2023/03/28 05:24:19;;;;;;;5.45;2.38;;;;;;;;;;4875457;29;20064;-65
2023/03/28 05:26:49;;;;;;;8.02;2.10;;;;;;;;;;4893981;29;20445;-64
2023/03/28 05:29:23;;;;;;;5.60;2.63;;;;;;;;;;4931514;29;20060;-65
2023/03/28 05:31:53;;;;;;;14.98;2.40;;;;;;;;;;4880777;29;20559;-65
2023/03/28 05:34:30;;;;;;;4.43;2.05;;;;;;;;;;4856694;29;20050;-64
2023/03/28 05:37:00;;;;;;;7.05;2.38;;;;;;;;;;4842447;29;20057;-65
2023/03/28 05:39:52;;;;;;;7.95;2.53;;;;;;;;;;4893833;29;20063;-64
2023/03/28 05:42:22;;;;;;;5.05;2.20;;;;;;;;;;4821135;29;20054;-64
2023/03/28 05:44:51;;;;;;;8.65;2.50;;;;;;;;;;4838486;29;20061;-64
2023/03/28 05:47:40;;;;;;;5.40;2.42;;;;;;;;;;4842924;29;20058;-65
2023/03/28 05:50:10;;;;;;;6.38;2.05;;;;;;;;;;4822619;29;20059;-64
2023/03/28 05:52:40;;;;;;;5.63;2.50;;;;;;;;;;4838412;29;20062;-64
2023/03/28 05:55:10;;;;;;;5.47;2.00;;;;;;;;;;4844646;29;20175;-64
2023/03/28 05:57:40;;;;;;;4.80;2.08;;;;;;;;;;4875022;29;20060;-65
2023/03/28 06:00:12;;;;;;;6.25;2.30;;;;;;;;;;4893541;29;20067;-64
2023/03/28 06:02:53;;;;;;;5.40;2.20;;;;;;;;;;4877689;29;20048;-64
2023/03/28 06:05:32;;;;;;;4.88;2.33;;;;;;;;;;4838703;29;20082;-64
2023/03/28 06:08:08;;;;;;;7.05;2.40;;;;;;;;;;4857561;29;20060;-66
2023/03/28 06:10:39;;;;;;;7.90;2.20;;;;;;;;;;4874953;29;20075;-64
2023/03/28 06:13:19;;;;;;;3.45;2.00;;;;;;;;;;4856526;29;20066;-64
2023/03/28 06:15:49;;;;;;;9.93;2.25;;;;;;;;;;4871771;29;20057;-64
2023/03/28 06:18:27;;;;;;;6.97;2.10;;;;;;;;;;4874825;29;20044;-64
2023/03/28 06:20:57;;;;;;;6.38;2.20;;;;;;;;;;4874318;29;20057;-65
2023/03/28 06:23:27;;;;;;;6.22;2.50;;;;;;;;;;4840031;29;20557;-64
2023/03/28 06:25:58;;;;;;;4.03;1.85;;;;;;;;;;4819312;29;20566;-64
2023/03/28 06:28:33;;;;;;;3.60;1.90;;;;;;;;;;4837321;29;20066;-64
2023/03/28 06:31:18;;;;;;;4.90;2.10;;;;;;;;;;4837527;29;20067;-65
2023/03/28 06:33:49;;;;;;;6.43;2.33;;;;;;;;;;4819411;29;20050;-64
2023/03/28 06:36:21;;;;;;;4.47;2.10;;;;;;;;;;4817434;29;20058;-64
2023/03/28 06:38:52;;;;;;;4.18;1.92;;;;;;;;;;4808902;29;20058;-65
2023/03/28 06:41:24;;;;;;;8.80;1.98;;;;;;;;;;4837576;29;20054;-65
2023/03/28 06:43:54;;;;;;;4.45;2.25;;;;;;;;;;4860253;29;20176;-64
2023/03/28 06:46:50;;;;;;;7.20;2.22;;;;;;;;;;4856175;29;20053;-65
2023/03/28 06:49:22;;;;;;;6.57;2.25;;;;;;;;;;4855743;29;20072;-64
2023/03/28 06:52:10;;;;;;;6.95;2.45;;;;;;;;;;4856154;29;20061;-64
2023/03/28 06:54:42;;;;;;;7.05;2.45;;;;;;;;;;4833626;29;20541;-64
2023/03/28 06:57:15;;;;;;;3.60;2.13;;;;;;;;;;4838249;29;20152;-64
2023/03/28 06:59:47;;;;;;;4.88;1.95;;;;;;;;;;4833461;29;20519;-64
2023/03/28 07:02:24;;;;;;;6.30;1.90;;;;;;;;;;4873080;29;20057;-65
2023/03/28 07:04:59;;;;;;;3.95;2.05;;;;;;;;;;4892715;29;20532;-65
2023/03/28 07:07:29;;;;;;;5.47;2.22;;;;;;;;;;4880686;29;20088;-64
2023/03/28 07:09:59;;;;;;;6.22;2.17;;;;;;;;;;4840349;29;20068;-65
2023/03/28 07:12:30;;;;;;;5.57;2.08;;;;;;;;;;4855797;29;20053;-64
2023/03/28 07:15:00;;;;;;;4.55;2.05;;;;;;;;;;4806051;29;20058;-64
2023/03/28 07:17:29;;;;;;;5.95;2.25;;;;;;;;;;4825548;29;20058;-64
2023/03/28 07:20:00;;;;;;;7.40;2.13;;;;;;;;;;4855955;29;20176;-64
2023/03/28 07:22:31;;;;;;;5.68;1.90;;;;;;;;;;4791454;29;20055;-64
2023/03/28 07:25:00;;;;;;;5.07;2.10;;;;;;;;;;4838133;29;20096;-64
2023/03/28 07:27:31;;;;;;;7.93;2.03;;;;;;;;;;4840117;29;20054;-65
2023/03/28 07:30:01;;;;;;;4.93;2.40;;;;;;;;;;4840406;29;20050;-64
2023/03/28 07:32:31;;;;;;;4.82;2.35;;;;;;;;;;4840299;29;20485;-65
2023/03/28 07:35:21;;;;;;;11.57;2.47;;;;;;;;;;4840877;29;20078;-64
2023/03/28 07:37:52;;;;;;;4.80;1.90;;;;;;;;;;4877604;29;20057;-64
2023/03/28 07:40:42;;;;;;;5.70;2.05;;;;;;;;;;4863346;29;20057;-64
2023/03/28 07:43:12;;;;;;;6.38;2.20;;;;;;;;;;4895623;29;20061;-64
2023/03/28 07:45:42;;;;;;;6.38;2.22;;;;;;;;;;4895922;29;20052;-64
2023/03/28 07:48:12;;;;;;;4.28;1.83;;;;;;;;;;4863631;29;20072;-64
2023/03/28 07:50:43;;;;;;;5.05;2.22;;;;;;;;;;4877273;29;20049;-63
2023/03/28 07:53:16;;;;;;;5.32;2.42;;;;;;;;;;4901565;29;20060;-64
2023/03/28 07:55:48;;;;;;;5.55;2.40;;;;;;;;;;4914545;29;20044;-65
2023/03/28 07:58:30;;;;;;;9.60;2.60;;;;;;;;;;4933254;29;20136;-65
2023/03/28 08:01:11;;;;;;;8.10;2.22;;;;;;;;;;4914507;29;20056;-65
2023/03/28 08:03:47;;;;;;;5.05;2.22;;;;;;;;;;4914346;29;20067;-66
2023/03/28 08:06:17;;;;;;;5.13;1.92;;;;;;;;;;4914621;29;20063;-65
2023/03/28 08:09:02;;;;;;;6.00;2.00;;;;;;;;;;4885120;29;20056;-64
2023/03/28 08:11:41;;;;;;;4.40;2.00;;;;;;;;;;4862457;29;20600;-65
2023/03/28 08:14:14;;;;;;;4.07;2.08;;;;;;;;;;4876789;29;20530;-64
2023/03/28 08:16:45;;;;;;;5.32;2.42;;;;;;;;;;4858227;29;20596;-63
2023/03/28 08:19:15;;;;;;;4.28;2.15;;;;;;;;;;4832067;29;20058;-64
2023/03/28 08:22:09;;;;;;;6.22;2.40;;;;;;;;;;4852175;29;20054;-65
2023/03/28 08:24:49;;;;;;;4.15;2.20;;;;;;;;;;4829546;29;20063;-64
2023/03/28 08:27:21;;;;;;;5.57;2.13;;;;;;;;;;4875737;29;20057;-63
2023/03/28 08:29:58;;;;;;;4.53;2.30;;;;;;;;;;4894952;29;20559;-64
2023/03/28 08:32:30;;;;;;;6.05;2.53;;;;;;;;;;4875996;29;20096;-64
2023/03/28 08:35:02;;;;;;;8.98;2.75;;;;;;;;;;4848447;29;20426;-64
2023/03/28 08:37:33;;;;;;;4.22;2.35;;;;;;;;;;4887956;29;20053;-64
2023/03/28 08:40:09;;;;;;;6.00;2.50;;;;;;;;;;4905522;29;20498;-65
2023/03/28 08:42:43;;;;;;;5.45;2.50;;;;;;;;;;4906154;29;20167;-64
2023/03/28 08:45:16;;;;;;;5.10;2.33;;;;;;;;;;4913579;29;20063;-64
2023/03/28 08:48:12;;;;;;;5.65;2.47;;;;;;;;;;4842365;29;20116;-63
2023/03/28 08:50:46;;;;;;;3.75;2.03;;;;;;;;;;4857196;29;20168;-64
2023/03/28 08:53:36;;;;;;;7.10;2.38;;;;;;;;;;4857749;29;20079;-64
2023/03/28 08:56:07;;;;;;;5.43;2.42;;;;;;;;;;4847690;29;20518;-66
2023/03/28 08:58:57;;;;;;;4.97;2.38;;;;;;;;;;4836235;29;20471;-65
2023/03/28 09:01:31;;;;;;;4.50;2.15;;;;;;;;;;4820945;29;20499;-65
2023/03/28 09:04:02;;;;;;;4.35;2.20;;;;;;;;;;4820451;29;20069;-64
2023/03/28 09:06:40;;;;;;;6.38;2.58;;;;;;;;;;4839166;29;20502;-65
2023/03/28 09:09:23;;;;;;;7.10;2.50;;;;;;;;;;4856997;29;20060;-64
2023/03/28 09:12:17;;;;;;;6.13;2.38;;;;;;;;;;4838352;29;20498;-64
2023/03/28 09:15:05;;;;;;;7.70;2.60;;;;;;;;;;4862634;29;20438;-64
2023/03/28 09:17:43;;;;;;;5.55;2.40;;;;;;;;;;4892055;29;20541;-64
2023/03/28 09:20:35;;;;;;;5.18;2.28;;;;;;;;;;4886060;29;20415;-64
2023/03/28 09:23:35;;;;;;;6.93;2.50;;;;;;;;;;4875630;29;20541;-64
2023/03/28 09:26:29;;;;;;;6.47;2.70;;;;;;;;;;4876217;29;20132;-64
2023/03/28 09:29:18;;;;;;;4.63;2.40;;;;;;;;;;4937594;29;20054;-64
2023/03/28 09:31:53;;;;;;;5.70;2.20;;;;;;;;;;4903488;29;20583;-65
2023/03/28 09:34:35;;;;;;;5.55;2.50;;;;;;;;;;4970220;28;20054;-64
2023/03/28 09:37:44;;;;;;;6.05;2.35;;;;;;;;;;4950512;28;20071;-64
2023/03/28 09:40:31;;;;;;;5.47;2.72;;;;;;;;;;4951041;29;20050;-64
2023/03/28 09:43:35;;;;;;;4.93;2.45;;;;;;;;;;4944664;28;20067;-64
2023/03/28 09:46:40;;;;;;;5.80;2.40;;;;;;;;;;4925275;29;20650;-65
2023/03/28 09:49:28;;;;;;;6.90;2.65;;;;;;;;;;4951650;28;20058;-65
2023/03/28 09:52:21;;;;;;;6.18;2.72;;;;;;;;;;4956886;28;20047;-64
2023/03/28 09:54:52;;;;;;;6.97;2.53;;;;;;;;;;4917399;29;20420;-62
2023/03/28 09:57:23;;;;;;;4.97;2.83;;;;;;;;;;4925856;29;20072;-63
2023/03/28 10:00:04;;;;;;;;;;;;;;;;;;4890578;29;20049;-63
2023/03/28 10:02:53;;;;;;;9.75;3.53;;;;;;;;;;4919856;29;19923;-63
2023/03/28 10:05:39;;;;;;;6.82;3.00;;;;;;;;;;4912070;29;20060;-65
2023/03/28 10:08:38;;;;;;;8.13;2.80;;;;;;;;;;4849802;29;20057;-64
2023/03/28 10:11:23;;;;;;;7.57;3.10;;;;;;;;;;4882907;29;20049;-65
2023/03/28 10:13:54;;;;;;;10.27;2.58;;;;;;;;;;4896117;29;20071;-67
2023/03/28 10:16:26;;;;;;;13.95;3.10;;;;;;;;;;4912268;29;20138;-64
2023/03/28 10:19:02;;;;;;;10.18;2.90;;;;;;;;;;4912049;29;20063;-64
2023/03/28 10:21:37;;;;;;;6.53;2.88;;;;;;;;;;4912225;29;20101;-64
2023/03/28 10:24:22;;;;;;;8.77;3.00;;;;;;;;;;4925397;29;20432;-66
2023/03/28 10:27:12;;;;;;;7.18;3.17;;;;;;;;;;4897146;29;20044;-63
2023/03/28 10:29:43;;;;;;;7.93;2.90;;;;;;;;;;4893057;29;20205;-64
2023/03/28 10:32:29;;;;;;;8.98;3.75;;;;;;;;;;4823644;29;20042;-63
2023/03/28 10:35:23;;;;;;;11.50;3.70;;;;;;;;;;4878249;29;20205;-66
2023/03/28 10:38:19;;;;;;;10.27;4.13;;;;;;;;;;4856195;29;20982;-66
2023/03/28 10:41:23;;;;;;;7.70;3.85;;;;;;;;;;4837772;29;20073;-65
2023/03/28 10:44:18;;;;;;;8.65;3.50;;;;;;;;;;4838056;29;20062;-62
2023/03/28 10:47:10;;;;;;;6.63;3.42;;;;;;;;;;4851820;29;20061;-62
2023/03/28 10:49:56;;;;;;;7.18;3.47;;;;;;;;;;4832479;29;20073;-63
2023/03/28 10:52:42;;;;;;;7.00;3.60;;;;;;;;;;4838012;29;20062;-62
2023/03/28 10:55:22;;;;;;;6.07;3.30;;;;;;;;;;4854981;29;20516;-62
2023/03/28 10:58:37;;;;;;;8.45;3.83;;;;;;;;;;4878379;29;20506;-62
2023/03/28 11:01:23;;;;;;;8.38;3.58;;;;;;;;;;4846105;29;20045;-63
2023/03/28 11:04:39;;;;;;;9.07;4.10;;;;;;;;;;4878091;29;20055;-62
2023/03/28 11:07:35;;;;;;;12.82;3.95;;;;;;;;;;4838501;29;20058;-62
2023/03/28 11:10:50;;;;;;;11.98;4.00;;;;;;;;;;4777209;29;20060;-62
2023/03/28 11:13:52;;;;;;;11.00;4.32;;;;;;;;;;4804347;29;20411;-63
2023/03/28 11:16:35;;;;;;;12.15;3.63;;;;;;;;;;4804842;29;20054;-63
2023/03/28 11:19:42;;;;;;;10.23;3.55;;;;;;;;;;4830660;29;20051;-63
2023/03/28 11:22:44;;;;;;;6.22;2.90;;;;;;;;;;4875774;29;20065;-63
2023/03/28 11:25:45;;;;;;;7.40;3.50;;;;;;;;;;4858809;29;20557;-63
2023/03/28 11:28:52;;;;;;;10.60;3.30;;;;;;;;;;4783016;30;20060;-64
2023/03/28 11:31:33;;;;;;;7.45;3.35;;;;;;;;;;4768098;30;20052;-64
2023/03/28 11:34:21;;;;;;;10.55;3.03;;;;;;;;;;4803873;29;20586;-63
2023/03/28 11:37:23;;;;;;;13.75;6.05;;;;;;;;;;4815830;29;20421;-64
2023/03/28 11:40:26;;;;;;;4.57;2.05;;;;;;;;;;4786452;29;20062;-64
2023/03/28 11:43:20;;;;;;;3.72;1.60;;;;;;;;;;4816273;29;20191;-64
2023/03/28 11:46:29;;;;;;;5.18;1.70;;;;;;;;;;4805579;29;20218;-64
2023/03/28 11:49:24;;;;;;;3.00;1.63;;;;;;;;;;4803640;29;20066;-64
2023/03/28 11:52:21;;;;;;;5.03;1.77;;;;;;;;;;4803582;29;20062;-64
2023/03/28 11:55:19;;;;;;;6.60;1.23;;;;;;;;;;4840149;29;20066;-62
2023/03/28 11:58:04;;;;;;;3.33;1.33;;;;;;;;;;4785217;29;20058;-63
2023/03/28 12:00:44;;;;;;;3.85;1.50;;;;;;;;;;4858025;29;20064;-63
2023/03/28 12:03:43;;;;;;;3.03;1.27;;;;;;;;;;4810509;29;20050;-63
2023/03/28 12:06:42;;;;;;;2.20;1.00;;;;;;;;;;4821461;29;20072;-63
2023/03/28 12:09:47;;;;;;;3.33;1.00;;;;;;;;;;4821367;29;20061;-63
2023/03/28 12:12:26;;;;;;;3.45;1.52;;;;;;;;;;4808260;29;20078;-63
2023/03/28 12:15:04;;;;;;;2.25;1.02;;;;;;;;;;4794167;29;20063;-63
2023/03/28 12:17:51;;;;;;;2.80;1.02;;;;;;;;;;4795408;29;20048;-64
2023/03/28 12:20:59;;;;;;;2.63;1.00;;;;;;;;;;4798238;29;20082;-63
2023/03/28 12:24:00;;;;;;;2.20;0.95;;;;;;;;;;4858048;29;20049;-63
2023/03/28 12:27:06;;;;;;;5.63;0.93;;;;;;;;;;4800015;29;20059;-64
2023/03/28 12:30:05;;;;;;;2.80;1.05;;;;;;;;;;4767086;29;20064;-64
2023/03/28 12:33:02;;;;;;;3.03;1.40;;;;;;;;;;4783250;29;20052;-63
2023/03/28 12:36:24;;;;;;;1.63;1.00;;;;;;;;;;4821147;29;20061;-64
2023/03/28 12:39:59;;;;;;;3.80;1.02;;;;;;;;;;4784228;29;20059;-64
2023/03/28 12:42:30;;;;;;;1.88;1.02;;;;;;;;;;4798102;29;20480;-64
2023/03/28 12:45:08;;;;;;;4.80;1.05;;;;;;;;;;4768081;30;20550;-63
2023/03/28 12:47:40;;;;;;;2.08;1.17;;;;;;;;;;4748546;30;20056;-63
2023/03/28 12:50:44;;;;;;;2.10;0.90;;;;;;;;;;4752283;30;20058;-62
2023/03/28 12:53:16;;;;;;;2.40;1.00;;;;;;;;;;4736966;30;21043;-63
2023/03/28 12:55:49;;;;;;;4.10;1.17;;;;;;;;;;4698373;30;20553;-63
2023/03/28 12:58:26;;;;;;;4.72;1.38;;;;;;;;;;4687361;30;20051;-63
2023/03/28 13:01:27;;;;;;;4.45;2.53;;;;;;;;;;4642311;30;20040;-64
2023/03/28 13:04:31;;;;;;;2.45;1.08;;;;;;;;;;4651229;30;20051;-64
2023/03/28 13:07:39;;;;;;;3.38;1.15;;;;;;;;;;4680953;30;20066;-63
2023/03/28 13:10:27;;;;;;;4.28;1.17;;;;;;;;;;4680376;30;20058;-63
2023/03/28 13:13:25;;;;;;;2.33;1.38;;;;;;;;;;4688419;30;20053;-63
2023/03/28 13:16:23;;;;;;;1.77;0.93;;;;;;;;;;4729289;30;20102;-62
2023/03/28 13:19:10;;;;;;;1.83;1.00;;;;;;;;;;4734163;30;20430;-65
2023/03/28 13:21:48;;;;;;;5.88;1.38;;;;;;;;;;4765194;30;20067;-64
2023/03/28 13:24:25;;;;;;;2.05;1.38;;;;;;;;;;4751589;30;20067;-63
2023/03/28 13:26:59;;;;;;;4.63;1.20;;;;;;;;;;4800426;29;20052;-65
2023/03/28 13:29:44;;;;;;;3.55;0.93;;;;;;;;;;4852003;29;20153;-64
2023/03/28 13:32:23;;;;;;;2.63;1.00;;;;;;;;;;4793290;29;20425;-64
2023/03/28 13:35:00;;;;;;;3.03;0.90;;;;;;;;;;4842179;29;20069;-64
2023/03/28 13:37:42;;;;;;;2.17;0.80;;;;;;;;;;4889366;28;20100;-65
2023/03/28 13:40:49;;;;;;;1.23;0.95;;;;;;;;;;4960286;28;20064;-64
2023/03/28 13:43:37;;;;;;;3.33;1.00;;;;;;;;;;5008040;28;20481;-63
2023/03/28 13:46:21;;;;;;;2.17;1.00;;;;;;;;;;4974113;28;20046;-64
2023/03/28 13:49:17;;;;;;;1.98;1.10;;;;;;;;;;5038106;28;20055;-64
2023/03/28 13:51:59;;;;;;;2.28;1.33;;;;;;;;;;5073936;28;20059;-64
2023/03/28 13:54:30;;;;;;;3.08;1.42;;;;;;;;;;5013075;28;20211;-64
2023/03/28 13:57:03;;;;;;;1.20;0.88;;;;;;;;;;5068428;28;20052;-64
2023/03/28 13:59:38;;;;;;;2.40;1.33;;;;;;;;;;5068530;28;20063;-63
2023/03/28 14:02:21;;;;;;;1.77;0.93;;;;;;;;;;5080142;28;20044;-62
2023/03/28 14:04:54;;;;;;;2.88;1.35;;;;;;;;;;4985911;28;20055;-63
2023/03/28 14:07:29;;;;;;;3.28;1.05;;;;;;;;;;5018891;28;20068;-65
2023/03/28 14:09:59;;;;;;;3.13;1.00;;;;;;;;;;5019539;28;20430;-63
2023/03/28 14:12:30;;;;;;;1.88;1.10;;;;;;;;;;4979102;28;20072;-63
2023/03/28 14:15:01;;;;;;;4.90;0.85;;;;;;;;;;5005318;28;20410;-63
2023/03/28 14:17:35;;;;;;;3.40;0.85;;;;;;;;;;4971776;28;20060;-63
2023/03/28 14:20:07;;;;;;;2.78;1.05;;;;;;;;;;4977712;28;20077;-62
2023/03/28 14:22:39;;;;;;;3.05;1.15;;;;;;;;;;4899569;29;20048;-63
2023/03/28 14:25:25;;;;;;;4.38;1.17;;;;;;;;;;4931304;29;20063;-64
2023/03/28 14:27:56;;;;;;;2.05;1.00;;;;;;;;;;4896119;29;20059;-63
2023/03/28 14:30:36;;;;;;;1.40;0.93;;;;;;;;;;4896407;29;20056;-64
2023/03/28 14:33:12;;;;;;;2.95;1.10;;;;;;;;;;4912059;29;20064;-63
2023/03/28 14:35:44;;;;;;;3.35;1.35;;;;;;;;;;4949811;28;20393;-63
2023/03/28 14:38:28;;;;;;;3.92;0.98;;;;;;;;;;4931526;29;20187;-63
2023/03/28 14:41:30;;;;;;;3.50;1.00;;;;;;;;;;4931369;29;20435;-65
2023/03/28 14:44:02;;;;;;;3.78;0.98;;;;;;;;;;4930913;29;20078;-63
2023/03/28 14:46:33;;;;;;;4.03;0.80;;;;;;;;;;4930596;29;20048;-64
2023/03/28 14:49:08;;;;;;;1.50;0.98;;;;;;;;;;4899908;29;20965;-63
2023/03/28 14:51:44;;;;;;;3.65;1.02;;;;;;;;;;4912071;29;20497;-65
2023/03/28 14:54:21;;;;;;;1.98;0.98;;;;;;;;;;4909602;29;20512;-65
2023/03/28 14:56:52;;;;;;;3.53;1.10;;;;;;;;;;4893892;29;20462;-64
2023/03/28 14:59:30;;;;;;;2.08;1.00;;;;;;;;;;4888961;29;20433;-64
2023/03/28 15:02:03;;;;;;;3.90;1.15;;;;;;;;;;4860268;29;20057;-64
2023/03/28 15:04:34;;;;;;;1.83;1.02;;;;;;;;;;4876428;29;20654;-63
2023/03/28 15:07:07;;;;;;;2.10;1.02;;;;;;;;;;4875811;29;20053;-63
2023/03/28 15:09:37;;;;;;;2.42;1.02;;;;;;;;;;4885437;29;20057;-63
2023/03/28 15:12:08;;;;;;;1.83;1.02;;;;;;;;;;4876891;29;20529;-64
2023/03/28 15:14:44;;;;;;;;;;;;;;;;;;4813436;29;20060;-64
2023/03/28 15:17:19;;;;;;;2.05;0.95;;;;;;;;;;4893127;29;19974;-65
2023/03/28 15:19:54;;;;;;;2.58;0.90;;;;;;;;;;4913072;28;20058;-64
2023/03/28 15:22:29;;;;;;;3.65;1.20;;;;;;;;;;5009017;28;20058;-67
2023/03/28 15:24:59;;;;;;;3.95;0.90;;;;;;;;;;5011166;28;20600;-66
2023/03/28 15:27:34;;;;;;;1.30;0.95;;;;;;;;;;5028121;28;20058;-66
2023/03/28 15:30:12;;;;;;;5.53;1.13;;;;;;;;;;5028235;28;20045;-66
2023/03/28 15:32:43;;;;;;;4.15;1.00;;;;;;;;;;5011897;28;20057;-66
2023/03/28 15:35:37;;;;;;;3.65;0.95;;;;;;;;;;5028481;28;20757;-63
2023/03/28 15:38:19;;;;;;;2.65;0.82;;;;;;;;;;5031917;28;20046;-66
2023/03/28 15:40:51;;;;;;;3.42;1.38;;;;;;;;;;5031770;28;20056;-66
2023/03/28 15:43:59;;;;;;;3.90;1.05;;;;;;;;;;5052857;28;20048;-65
2023/03/28 15:46:32;;;;;;;1.83;0.93;;;;;;;;;;5011482;28;20046;-65
2023/03/28 15:49:05;;;;;;;3.97;0.95;;;;;;;;;;5011877;28;20053;-65
2023/03/28 15:51:54;;;;;;;1.95;0.93;;;;;;;;;;5011589;28;20042;-65
2023/03/28 15:54:25;;;;;;;1.55;0.73;;;;;;;;;;4947383;28;20588;-66
2023/03/28 15:57:01;;;;;;;1.60;0.95;;;;;;;;;;5011520;28;20068;-66
2023/03/28 15:59:45;;;;;;;3.63;0.82;;;;;;;;;;5010816;28;20453;-66
2023/03/28 16:02:24;;;;;;;2.00;1.02;;;;;;;;;;4937868;28;20556;-66
2023/03/28 16:05:06;;;;;;;1.17;0.80;;;;;;;;;;5007697;28;20561;-67
2023/03/28 16:07:45;;;;;;;1.80;0.90;;;;;;;;;;4977485;28;20061;-66